sensor_id;sensor_type;location;lat;lon;timestamp;pressure;altitude;pressure_sealevel;temperature;humidity
70781;BME280;59514;48.810;2.134;2022-11-20T00:00:57;100178.47;;;7.35;86.62
70781;BME280;59514;48.810;2.134;2022-11-20T00:03:23;100172.09;;;7.36;86.68
70781;BME280;59514;48.810;2.134;2022-11-20T00:05:48;100169.41;;;7.36;86.70
70781;BME280;59514;48.810;2.134;2022-11-20T00:08:13;100165.13;;;7.35;86.45
70781;BME280;59514;48.810;2.134;2022-11-20T00:10:39;100162.44;;;7.35;86.17
70781;BME280;59514;48.810;2.134;2022-11-20T00:13:06;100173.75;;;7.31;87.06
70781;BME280;59514;48.810;2.134;2022-11-20T00:15:31;100168.22;;;7.26;86.01
70781;BME280;59514;48.810;2.134;2022-11-20T00:17:57;100172.69;;;7.32;86.16
70781;BME280;59514;48.810;2.134;2022-11-20T00:20:23;100178.25;;;7.30;86.02
70781;BME280;59514;48.810;2.134;2022-11-20T00:22:49;100173.34;;;7.21;86.48
70781;BME280;59514;48.810;2.134;2022-11-20T00:25:14;100168.41;;;7.24;85.72
70781;BME280;59514;48.810;2.134;2022-11-20T00:27:40;100169.44;;;7.23;86.26
70781;BME280;59514;48.810;2.134;2022-11-20T00:30:06;100165.56;;;7.26;86.09
70781;BME280;59514;48.810;2.134;2022-11-20T00:32:31;100176.63;;;7.23;86.17
70781;BME280;59514;48.810;2.134;2022-11-20T00:34:57;100171.72;;;7.20;85.96
70781;BME280;59514;48.810;2.134;2022-11-20T00:37:22;100181.97;;;7.16;85.94
70781;BME280;59514;48.810;2.134;2022-11-20T00:39:47;100179.50;;;7.15;85.75
70781;BME280;59514;48.810;2.134;2022-11-20T00:42:13;100184.84;;;7.08;85.65
70781;BME280;59514;48.810;2.134;2022-11-20T00:44:38;100189.56;;;7.06;85.83
70781;BME280;59514;48.810;2.134;2022-11-20T00:47:04;100191.22;;;7.07;86.80
70781;BME280;59514;48.810;2.134;2022-11-20T00:49:29;100180.78;;;7.06;86.13
70781;BME280;59514;48.810;2.134;2022-11-20T00:51:55;100192.69;;;7.03;86.06
70781;BME280;59514;48.810;2.134;2022-11-20T00:54:20;100196.78;;;6.99;86.49
70781;BME280;59514;48.810;2.134;2022-11-20T00:56:45;100185.28;;;6.98;86.47
70781;BME280;59514;48.810;2.134;2022-11-20T00:59:11;100188.78;;;6.92;86.82
70781;BME280;59514;48.810;2.134;2022-11-20T01:01:37;100194.31;;;6.84;86.59
70781;BME280;59514;48.810;2.134;2022-11-20T01:04:02;100190.63;;;6.85;86.95
70781;BME280;59514;48.810;2.134;2022-11-20T01:06:33;100188.56;;;6.87;86.67
70781;BME280;59514;48.810;2.134;2022-11-20T01:09:07;100191.22;;;6.81;86.67
70781;BME280;59514;48.810;2.134;2022-11-20T01:11:36;100189.59;;;6.80;87.16
70781;BME280;59514;48.810;2.134;2022-11-20T01:14:04;100186.91;;;6.86;87.06
70781;BME280;59514;48.810;2.134;2022-11-20T01:16:34;100193.91;;;6.81;86.59
70781;BME280;59514;48.810;2.134;2022-11-20T01:19:02;100199.44;;;6.73;87.50
70781;BME280;59514;48.810;2.134;2022-11-20T01:21:31;100191.84;;;6.63;87.62
70781;BME280;59514;48.810;2.134;2022-11-20T01:23:57;100191.00;;;6.63;87.22
70781;BME280;59514;48.810;2.134;2022-11-20T01:26:28;100184.84;;;6.62;88.32
70781;BME280;59514;48.810;2.134;2022-11-20T01:28:54;100183.84;;;6.63;87.87
70781;BME280;59514;48.810;2.134;2022-11-20T01:31:25;100179.34;;;6.64;87.90
70781;BME280;59514;48.810;2.134;2022-11-20T01:33:53;100182.41;;;6.61;87.98
70781;BME280;59514;48.810;2.134;2022-11-20T01:36:21;100179.97;;;6.66;87.39
70781;BME280;59514;48.810;2.134;2022-11-20T01:38:47;100176.66;;;6.64;88.06
70781;BME280;59514;48.810;2.134;2022-11-20T01:41:14;100166.41;;;6.61;86.75
70781;BME280;59514;48.810;2.134;2022-11-20T01:44:00;100172.94;;;6.58;87.63
70781;BME280;59514;48.810;2.134;2022-11-20T01:46:26;100174.38;;;6.54;87.48
70781;BME280;59514;48.810;2.134;2022-11-20T01:49:04;100171.31;;;6.51;87.31
70781;BME280;59514;48.810;2.134;2022-11-20T01:51:45;100169.25;;;6.46;87.09
70781;BME280;59514;48.810;2.134;2022-11-20T01:54:16;100174.38;;;6.48;87.17
70781;BME280;59514;48.810;2.134;2022-11-20T01:56:44;100170.06;;;6.34;87.40
70781;BME280;59514;48.810;2.134;2022-11-20T01:59:13;100175.38;;;6.27;87.81
70781;BME280;59514;48.810;2.134;2022-11-20T02:01:40;100168.84;;;6.36;88.20
70781;BME280;59514;48.810;2.134;2022-11-20T02:04:07;100166.78;;;6.32;88.52
70781;BME280;59514;48.810;2.134;2022-11-20T02:06:36;100163.06;;;6.33;87.72
70781;BME280;59514;48.810;2.134;2022-11-20T02:09:05;100160.84;;;6.36;87.31
70781;BME280;59514;48.810;2.134;2022-11-20T02:11:31;100155.69;;;6.35;87.65
70781;BME280;59514;48.810;2.134;2022-11-20T02:13:56;100154.06;;;6.34;88.07
70781;BME280;59514;48.810;2.134;2022-11-20T02:16:30;100159.78;;;6.31;87.92
70781;BME280;59514;48.810;2.134;2022-11-20T02:18:58;100154.66;;;6.29;88.10
70781;BME280;59514;48.810;2.134;2022-11-20T02:21:28;100158.78;;;6.32;87.63
70781;BME280;59514;48.810;2.134;2022-11-20T02:26:29;100158.38;;;6.28;87.88
70781;BME280;59514;48.810;2.134;2022-11-20T02:28:55;100154.44;;;6.31;87.49
70781;BME280;59514;48.810;2.134;2022-11-20T02:31:20;100157.75;;;6.33;87.29
70781;BME280;59514;48.810;2.134;2022-11-20T02:33:46;100152.41;;;6.26;87.63
70781;BME280;59514;48.810;2.134;2022-11-20T02:36:14;100152.81;;;6.30;87.48
70781;BME280;59514;48.810;2.134;2022-11-20T02:38:42;100140.72;;;6.34;87.46
70781;BME280;59514;48.810;2.134;2022-11-20T02:41:08;100141.34;;;6.36;87.48
70781;BME280;59514;48.810;2.134;2022-11-20T02:43:33;100148.53;;;6.42;86.97
70781;BME280;59514;48.810;2.134;2022-11-20T02:45:58;100129.44;;;6.45;86.82
70781;BME280;59514;48.810;2.134;2022-11-20T02:48:24;100132.75;;;6.40;87.49
70781;BME280;59514;48.810;2.134;2022-11-20T02:50:49;100122.88;;;6.41;86.85
70781;BME280;59514;48.810;2.134;2022-11-20T02:53:14;100121.66;;;6.37;86.80
70781;BME280;59514;48.810;2.134;2022-11-20T02:55:40;100116.31;;;6.37;87.18
70781;BME280;59514;48.810;2.134;2022-11-20T02:58:05;100110.97;;;6.37;87.31
70781;BME280;59514;48.810;2.134;2022-11-20T03:00:31;100108.75;;;6.34;87.09
70781;BME280;59514;48.810;2.134;2022-11-20T03:02:57;100101.34;;;6.36;86.79
70781;BME280;59514;48.810;2.134;2022-11-20T03:05:22;100101.34;;;6.36;87.43
70781;BME280;59514;48.810;2.134;2022-11-20T03:07:48;100097.03;;;6.41;87.62
70781;BME280;59514;48.810;2.134;2022-11-20T03:10:13;100096.03;;;6.42;86.84
70781;BME280;59514;48.810;2.134;2022-11-20T03:12:39;100087.22;;;6.42;86.98
70781;BME280;59514;48.810;2.134;2022-11-20T03:15:04;100094.19;;;6.30;87.57
70781;BME280;59514;48.810;2.134;2022-11-20T03:17:30;100092.31;;;6.37;87.31
70781;BME280;59514;48.810;2.134;2022-11-20T03:19:56;100091.91;;;6.33;87.41
70781;BME280;59514;48.810;2.134;2022-11-20T03:22:21;100092.94;;;6.39;88.21
70781;BME280;59514;48.810;2.134;2022-11-20T03:24:46;100083.94;;;6.40;87.54
70781;BME280;59514;48.810;2.134;2022-11-20T03:27:12;100078.59;;;6.40;87.33
70781;BME280;59514;48.810;2.134;2022-11-20T03:29:37;100070.81;;;6.38;87.89
70781;BME280;59514;48.810;2.134;2022-11-20T03:32:03;100066.69;;;6.36;88.03
70781;BME280;59514;48.810;2.134;2022-11-20T03:34:28;100081.47;;;6.32;87.73
70781;BME280;59514;48.810;2.134;2022-11-20T03:36:53;100076.13;;;6.32;87.65
70781;BME280;59514;48.810;2.134;2022-11-20T03:39:19;100073.66;;;6.37;88.45
70781;BME280;59514;48.810;2.134;2022-11-20T03:41:44;100075.31;;;6.38;88.01
70781;BME280;59514;48.810;2.134;2022-11-20T03:44:11;100079.59;;;6.39;88.03
70781;BME280;59514;48.810;2.134;2022-11-20T03:46:36;100071.59;;;6.39;88.11
70781;BME280;59514;48.810;2.134;2022-11-20T03:49:03;100064.44;;;6.39;87.77
70781;BME280;59514;48.810;2.134;2022-11-20T03:51:31;100062.59;;;6.40;88.37
70781;BME280;59514;48.810;2.134;2022-11-20T03:53:59;100063.00;;;6.37;88.28
70781;BME280;59514;48.810;2.134;2022-11-20T03:56:28;100056.22;;;6.41;88.39
70781;BME280;59514;48.810;2.134;2022-11-20T03:58:54;100058.06;;;6.47;87.74
70781;BME280;59514;48.810;2.134;2022-11-20T04:01:22;100055.81;;;6.50;88.28
70781;BME280;59514;48.810;2.134;2022-11-20T04:03:48;100055.19;;;6.55;88.14
70781;BME280;59514;48.810;2.134;2022-11-20T04:06:26;100056.03;;;6.55;87.93
70781;BME280;59514;48.810;2.134;2022-11-20T04:08:54;100058.06;;;6.60;88.31
70781;BME280;59514;48.810;2.134;2022-11-20T04:11:25;100060.94;;;6.65;87.90
70781;BME280;59514;48.810;2.134;2022-11-20T04:13:54;100058.47;;;6.63;87.74
70781;BME280;59514;48.810;2.134;2022-11-20T04:16:21;100044.72;;;6.66;87.65
70781;BME280;59514;48.810;2.134;2022-11-20T04:18:46;100047.38;;;6.73;87.26
70781;BME280;59514;48.810;2.134;2022-11-20T04:21:12;100052.72;;;6.73;86.85
70781;BME280;59514;48.810;2.134;2022-11-20T04:23:38;100042.47;;;6.70;86.79
70781;BME280;59514;48.810;2.134;2022-11-20T04:26:09;100042.88;;;6.73;86.82
70781;BME280;59514;48.810;2.134;2022-11-20T04:28:35;100043.69;;;6.67;86.98
70781;BME280;59514;48.810;2.134;2022-11-20T04:31:12;100045.53;;;6.67;86.87
70781;BME280;59514;48.810;2.134;2022-11-20T04:33:38;100044.09;;;6.64;86.81
70781;BME280;59514;48.810;2.134;2022-11-20T04:36:06;100055.41;;;6.60;87.61
70781;BME280;59514;48.810;2.134;2022-11-20T04:38:32;100052.53;;;6.61;86.81
70781;BME280;59514;48.810;2.134;2022-11-20T04:40:59;100046.97;;;6.63;86.69
70781;BME280;59514;48.810;2.134;2022-11-20T04:43:25;100041.25;;;6.59;86.80
70781;BME280;59514;48.810;2.134;2022-11-20T04:45:53;100034.25;;;6.58;87.55
70781;BME280;59514;48.810;2.134;2022-11-20T04:48:18;100024.19;;;6.60;87.24
70781;BME280;59514;48.810;2.134;2022-11-20T04:50:44;100036.53;;;6.61;86.79
70781;BME280;59514;48.810;2.134;2022-11-20T04:53:09;100031.41;;;6.60;87.16
70781;BME280;59514;48.810;2.134;2022-11-20T04:55:34;100027.09;;;6.59;87.20
70781;BME280;59514;48.810;2.134;2022-11-20T04:57:59;100029.75;;;6.65;87.21
70781;BME280;59514;48.810;2.134;2022-11-20T05:00:25;100026.88;;;6.67;86.68
70781;BME280;59514;48.810;2.134;2022-11-20T05:02:50;100028.53;;;6.68;86.72
70781;BME280;59514;48.810;2.134;2022-11-20T05:05:15;100020.53;;;6.68;86.36
70781;BME280;59514;48.810;2.134;2022-11-20T05:07:41;100021.31;;;6.68;86.76
70781;BME280;59514;48.810;2.134;2022-11-20T05:10:06;100021.75;;;6.65;85.91
70781;BME280;59514;48.810;2.134;2022-11-20T05:12:32;100019.28;;;6.64;86.38
70781;BME280;59514;48.810;2.134;2022-11-20T05:14:57;100014.75;;;6.64;86.32
70781;BME280;59514;48.810;2.134;2022-11-20T05:17:22;100017.25;;;6.59;86.11
70781;BME280;59514;48.810;2.134;2022-11-20T05:19:48;100015.81;;;6.57;86.29
70781;BME280;59514;48.810;2.134;2022-11-20T05:22:13;100008.63;;;6.57;86.96
70781;BME280;59514;48.810;2.134;2022-11-20T05:24:38;100015.81;;;6.57;86.74
70781;BME280;59514;48.810;2.134;2022-11-20T05:27:03;100014.97;;;6.56;86.31
70781;BME280;59514;48.810;2.134;2022-11-20T05:29:29;100014.97;;;6.56;86.07
70781;BME280;59514;48.810;2.134;2022-11-20T05:31:54;100013.13;;;6.57;86.89
70781;BME280;59514;48.810;2.134;2022-11-20T05:34:19;100012.13;;;6.58;86.86
70781;BME280;59514;48.810;2.134;2022-11-20T05:36:45;100012.53;;;6.55;86.09
70781;BME280;59514;48.810;2.134;2022-11-20T05:39:10;100009.69;;;6.50;86.61
70781;BME280;59514;48.810;2.134;2022-11-20T05:41:35;100006.56;;;6.53;86.10
70781;BME280;59514;48.810;2.134;2022-11-20T05:44:01;100011.50;;;6.49;86.34
70781;BME280;59514;48.810;2.134;2022-11-20T05:46:26;100007.63;;;6.52;86.06
70781;BME280;59514;48.810;2.134;2022-11-20T05:48:51;100007.59;;;6.58;86.02
70781;BME280;59514;48.810;2.134;2022-11-20T05:51:18;100011.72;;;6.48;86.43
70781;BME280;59514;48.810;2.134;2022-11-20T05:53:44;99999.84;;;6.44;86.53
70781;BME280;59514;48.810;2.134;2022-11-20T05:56:12;100001.28;;;6.40;86.83
70781;BME280;59514;48.810;2.134;2022-11-20T05:58:39;99998.19;;;6.43;86.94
70781;BME280;59514;48.810;2.134;2022-11-20T06:01:22;99999.00;;;6.43;86.88
70781;BME280;59514;48.810;2.134;2022-11-20T06:03:48;100004.75;;;6.47;86.54
70781;BME280;59514;48.810;2.134;2022-11-20T06:06:15;99999.00;;;6.50;86.69
70781;BME280;59514;48.810;2.134;2022-11-20T06:08:41;99998.19;;;6.49;86.32
70781;BME280;59514;48.810;2.134;2022-11-20T06:11:08;99992.44;;;6.46;87.18
70781;BME280;59514;48.810;2.134;2022-11-20T06:13:34;99988.97;;;6.45;86.40
70781;BME280;59514;48.810;2.134;2022-11-20T06:16:00;99991.41;;;6.47;86.40
70781;BME280;59514;48.810;2.134;2022-11-20T06:18:27;99988.34;;;6.43;86.62
70781;BME280;59514;48.810;2.134;2022-11-20T06:21:20;99982.19;;;6.43;86.33
70781;BME280;59514;48.810;2.134;2022-11-20T06:23:46;99973.34;;;6.49;86.35
70781;BME280;59514;48.810;2.134;2022-11-20T06:26:18;99960.84;;;6.43;86.57
70781;BME280;59514;48.810;2.134;2022-11-20T06:28:44;99970.72;;;6.42;86.51
70781;BME280;59514;48.810;2.134;2022-11-20T06:31:11;99962.09;;;6.40;86.24
70781;BME280;59514;48.810;2.134;2022-11-20T06:33:37;99973.78;;;6.39;86.34
70781;BME280;59514;48.810;2.134;2022-11-20T06:36:03;99957.19;;;6.37;86.93
70781;BME280;59514;48.810;2.134;2022-11-20T06:38:29;99958.41;;;6.48;86.41
70781;BME280;59514;48.810;2.134;2022-11-20T06:40:55;99963.31;;;6.51;86.21
70781;BME280;59514;48.810;2.134;2022-11-20T06:43:21;99971.91;;;6.53;85.76
70781;BME280;59514;48.810;2.134;2022-11-20T06:45:51;99973.34;;;6.49;86.21
70781;BME280;59514;48.810;2.134;2022-11-20T06:48:17;99976.03;;;6.49;86.32
70781;BME280;59514;48.810;2.134;2022-11-20T06:50:42;99976.63;;;6.44;86.34
70781;BME280;59514;48.810;2.134;2022-11-20T06:53:07;99981.78;;;6.46;85.76
70781;BME280;59514;48.810;2.134;2022-11-20T06:55:33;99992.03;;;6.49;86.27
70781;BME280;59514;48.810;2.134;2022-11-20T06:57:58;99988.94;;;6.52;85.54
70781;BME280;59514;48.810;2.134;2022-11-20T07:00:24;99989.34;;;6.49;86.06
70781;BME280;59514;48.810;2.134;2022-11-20T07:02:49;99986.28;;;6.52;85.89
70781;BME280;59514;48.810;2.134;2022-11-20T07:05:15;99990.78;;;6.45;85.96
70781;BME280;59514;48.810;2.134;2022-11-20T07:07:40;99990.41;;;6.48;86.04
70781;BME280;59514;48.810;2.134;2022-11-20T07:10:06;99989.75;;;6.52;85.77
70781;BME280;59514;48.810;2.134;2022-11-20T07:12:31;99989.78;;;6.46;85.55
70781;BME280;59514;48.810;2.134;2022-11-20T07:14:56;99989.97;;;6.51;85.42
70781;BME280;59514;48.810;2.134;2022-11-20T07:17:22;99997.78;;;6.39;85.97
70781;BME280;59514;48.810;2.134;2022-11-20T07:19:47;99994.50;;;6.37;85.87
70781;BME280;59514;48.810;2.134;2022-11-20T07:22:13;99993.69;;;6.37;85.85
70781;BME280;59514;48.810;2.134;2022-11-20T07:24:38;99996.97;;;6.39;85.69
70781;BME280;59514;48.810;2.134;2022-11-20T07:27:04;99988.34;;;6.37;85.96
70781;BME280;59514;48.810;2.134;2022-11-20T07:29:29;99981.78;;;6.33;85.57
70781;BME280;59514;48.810;2.134;2022-11-20T07:31:54;99990.41;;;6.35;85.41
70781;BME280;59514;48.810;2.134;2022-11-20T07:34:21;99988.38;;;6.30;85.88
70781;BME280;59514;48.810;2.134;2022-11-20T07:36:46;99991.00;;;6.37;84.91
70781;BME280;59514;48.810;2.134;2022-11-20T07:39:12;99991.63;;;6.39;85.32
70781;BME280;59514;48.810;2.134;2022-11-20T07:41:37;100005.56;;;6.41;84.74
70781;BME280;59514;48.810;2.134;2022-11-20T07:44:02;99991.22;;;6.42;84.44
70781;BME280;59514;48.810;2.134;2022-11-20T07:46:28;99995.72;;;6.48;84.66
70781;BME280;59514;48.810;2.134;2022-11-20T07:48:53;99995.50;;;6.43;84.83
70781;BME280;59514;48.810;2.134;2022-11-20T07:51:18;99999.84;;;6.44;84.37
70781;BME280;59514;48.810;2.134;2022-11-20T07:53:44;99990.41;;;6.41;84.95
70781;BME280;59514;48.810;2.134;2022-11-20T07:56:09;99983.63;;;6.39;84.78
70781;BME280;59514;48.810;2.134;2022-11-20T07:58:35;100000.22;;;6.41;85.09
70781;BME280;59514;48.810;2.134;2022-11-20T08:01:05;99993.28;;;6.40;85.44
70781;BME280;59514;48.810;2.134;2022-11-20T08:03:30;99992.44;;;6.39;85.41
70781;BME280;59514;48.810;2.134;2022-11-20T08:05:59;99993.69;;;6.43;85.44
70781;BME280;59514;48.810;2.134;2022-11-20T08:08:25;99992.41;;;6.52;85.08
70781;BME280;59514;48.810;2.134;2022-11-20T08:10:51;99984.22;;;6.54;85.45
70781;BME280;59514;48.810;2.134;2022-11-20T08:13:16;99978.28;;;6.52;85.51
70781;BME280;59514;48.810;2.134;2022-11-20T08:16:00;99982.56;;;6.53;85.70
70781;BME280;59514;48.810;2.134;2022-11-20T08:18:25;99976.84;;;6.56;86.13
70781;BME280;59514;48.810;2.134;2022-11-20T08:20:51;99969.44;;;6.58;85.71
70781;BME280;59514;48.810;2.134;2022-11-20T08:23:16;99978.69;;;6.62;85.54
70781;BME280;59514;48.810;2.134;2022-11-20T08:25:41;99969.41;;;6.64;85.36
70781;BME280;59514;48.810;2.134;2022-11-20T08:28:08;99962.06;;;6.60;86.07
70781;BME280;59514;48.810;2.134;2022-11-20T08:30:35;99965.34;;;6.62;85.82
70781;BME280;59514;48.810;2.134;2022-11-20T08:33:10;99951.56;;;6.65;85.85
70781;BME280;59514;48.810;2.134;2022-11-20T08:35:36;99953.41;;;6.64;86.40
70781;BME280;59514;48.810;2.134;2022-11-20T08:38:06;99956.06;;;6.71;86.80
70781;BME280;59514;48.810;2.134;2022-11-20T08:40:32;99948.50;;;6.68;88.22
70781;BME280;59514;48.810;2.134;2022-11-20T08:42:58;99958.34;;;6.61;88.46
70781;BME280;59514;48.810;2.134;2022-11-20T08:45:23;99948.50;;;6.68;88.53
70781;BME280;59514;48.810;2.134;2022-11-20T08:47:49;99949.28;;;6.75;88.30
70781;BME280;59514;48.810;2.134;2022-11-20T08:50:15;99938.22;;;6.78;87.75
70781;BME280;59514;48.810;2.134;2022-11-20T08:52:41;99943.94;;;6.75;89.01
70781;BME280;59514;48.810;2.134;2022-11-20T08:55:07;99938.22;;;6.78;89.06
70781;BME280;59514;48.810;2.134;2022-11-20T08:57:34;99931.22;;;6.77;89.27
70781;BME280;59514;48.810;2.134;2022-11-20T08:59:59;99927.72;;;6.83;89.76
70781;BME280;59514;48.810;2.134;2022-11-20T09:02:25;99919.69;;;6.83;89.41
70781;BME280;59514;48.810;2.134;2022-11-20T09:04:50;99909.47;;;6.80;90.51
70781;BME280;59514;48.810;2.134;2022-11-20T09:07:16;99905.34;;;6.84;90.90
70781;BME280;59514;48.810;2.134;2022-11-20T09:09:41;99902.25;;;6.87;91.34
70781;BME280;59514;48.810;2.134;2022-11-20T09:12:06;99909.41;;;6.86;91.54
70781;BME280;59514;48.810;2.134;2022-11-20T09:14:32;99908.63;;;6.86;91.89
70781;BME280;59514;48.810;2.134;2022-11-20T09:16:57;99899.41;;;6.82;92.68
70781;BME280;59514;48.810;2.134;2022-11-20T09:19:25;99902.47;;;6.79;93.39
70781;BME280;59514;48.810;2.134;2022-11-20T09:21:51;99895.53;;;6.78;94.59
70781;BME280;59514;48.810;2.134;2022-11-20T09:24:17;99886.47;;;6.79;94.50
70781;BME280;59514;48.810;2.134;2022-11-20T09:26:42;99891.19;;;6.83;95.33
70781;BME280;59514;48.810;2.134;2022-11-20T09:29:07;99888.28;;;6.85;94.90
70781;BME280;59514;48.810;2.134;2022-11-20T09:31:33;99884.00;;;6.84;94.84
70781;BME280;59514;48.810;2.134;2022-11-20T09:33:58;99880.91;;;6.87;94.84
70781;BME280;59514;48.810;2.134;2022-11-20T09:36:23;99877.38;;;6.93;95.22
70781;BME280;59514;48.810;2.134;2022-11-20T09:38:49;99875.31;;;6.95;95.73
70781;BME280;59514;48.810;2.134;2022-11-20T09:41:56;99871.78;;;7.01;96.06
70781;BME280;59514;48.810;2.134;2022-11-20T09:47:20;99883.06;;;7.03;95.66
70781;BME280;59514;48.810;2.134;2022-11-20T09:49:54;99865.81;;;7.06;95.33
70781;BME280;59514;48.810;2.134;2022-11-20T09:55:21;99864.13;;;7.11;96.72
70781;BME280;59514;48.810;2.134;2022-11-20T09:57:48;99870.06;;;7.13;96.63
70781;BME280;59514;48.810;2.134;2022-11-20T10:00:16;99868.88;;;7.09;97.81
70781;BME280;59514;48.810;2.134;2022-11-20T10:02:46;99864.13;;;7.11;97.61
70781;BME280;59514;48.810;2.134;2022-11-20T10:05:22;99871.75;;;7.08;97.50
70781;BME280;59514;48.810;2.134;2022-11-20T10:07:52;99867.81;;;7.10;98.37
70781;BME280;59514;48.810;2.134;2022-11-20T10:10:41;99854.91;;;7.07;99.30
70781;BME280;59514;48.810;2.134;2022-11-20T10:18:58;99838.38;;;7.23;99.95
70781;BME280;59514;48.810;2.134;2022-11-20T10:29:36;99821.13;;;7.50;99.70
70781;BME280;59514;48.810;2.134;2022-11-20T10:32:11;99828.72;;;7.53;99.72
70781;BME280;59514;48.810;2.134;2022-11-20T10:34:44;99819.81;;;7.59;99.37
70781;BME280;59514;48.810;2.134;2022-11-20T10:37:18;99819.16;;;7.64;99.73
70781;BME280;59514;48.810;2.134;2022-11-20T10:42:46;99841.06;;;7.72;100.00
70781;BME280;59514;48.810;2.134;2022-11-20T10:45:33;99836.19;;;7.69;100.00
70781;BME280;59514;48.810;2.134;2022-11-20T10:50:32;99841.19;;;7.59;100.00
70781;BME280;59514;48.810;2.134;2022-11-20T10:57:00;99824.72;;;7.62;100.00
70781;BME280;59514;48.810;2.134;2022-11-20T11:01:42;99818.88;;;7.72;100.00
70781;BME280;59514;48.810;2.134;2022-11-20T11:04:37;99805.28;;;7.73;100.00
70781;BME280;59514;48.810;2.134;2022-11-20T11:07:33;99810.72;;;7.67;100.00
70781;BME280;59514;48.810;2.134;2022-11-20T11:10:00;99807.81;;;7.68;100.00
70781;BME280;59514;48.810;2.134;2022-11-20T11:12:28;99803.06;;;7.70;100.00
70781;BME280;59514;48.810;2.134;2022-11-20T11:14:55;99812.78;;;7.65;100.00
70781;BME280;59514;48.810;2.134;2022-11-20T11:17:32;99811.34;;;7.62;100.00
70781;BME280;59514;48.810;2.134;2022-11-20T11:20:05;99819.38;;;7.62;100.00
70781;BME280;59514;48.810;2.134;2022-11-20T11:22:34;99806.63;;;7.64;100.00
70781;BME280;59514;48.810;2.134;2022-11-20T11:24:59;99811.97;;;7.64;100.00
70781;BME280;59514;48.810;2.134;2022-11-20T11:27:25;99821.03;;;7.63;100.00
70781;BME280;59514;48.810;2.134;2022-11-20T11:30:02;99813.19;;;7.62;100.00
70781;BME280;59514;48.810;2.134;2022-11-20T11:32:28;99819.38;;;7.62;100.00
70781;BME280;59514;48.810;2.134;2022-11-20T11:35:05;99814.47;;;7.59;100.00
70781;BME280;59514;48.810;2.134;2022-11-20T11:37:36;99804.53;;;7.66;100.00
70781;BME280;59514;48.810;2.134;2022-11-20T11:40:08;99788.97;;;7.63;100.00
70781;BME280;59514;48.810;2.134;2022-11-20T11:42:42;99791.19;;;7.66;100.00
70781;BME280;59514;48.810;2.134;2022-11-20T11:45:14;99780.13;;;7.63;100.00
70781;BME280;59514;48.810;2.134;2022-11-20T11:55:09;99773.38;;;7.60;100.00
70781;BME280;59514;48.810;2.134;2022-11-20T12:00:26;99767.19;;;7.60;100.00
70781;BME280;59514;48.810;2.134;2022-11-20T12:03:11;99759.03;;;7.55;100.00
70781;BME280;59514;48.810;2.134;2022-11-20T12:05:46;99755.84;;;7.64;100.00
70781;BME280;59514;48.810;2.134;2022-11-20T12:11:16;99749.84;;;7.69;100.00
70781;BME280;59514;48.810;2.134;2022-11-20T12:16:13;99752.31;;;7.89;99.94
70781;BME280;59514;48.810;2.134;2022-11-20T12:18:40;99749.88;;;8.05;99.17
70781;BME280;59514;48.810;2.134;2022-11-20T12:27:30;99739.25;;;7.99;99.71
70781;BME280;59514;48.810;2.134;2022-11-20T12:35:47;99748.00;;;7.88;100.00
70781;BME280;59514;48.810;2.134;2022-11-20T12:38:39;99751.72;;;7.87;100.00
70781;BME280;59514;48.810;2.134;2022-11-20T12:52:48;99761.16;;;7.89;100.00
70781;BME280;59514;48.810;2.134;2022-11-20T12:58:20;99765.69;;;7.89;100.00
70781;BME280;59514;48.810;2.134;2022-11-20T13:00:56;99758.97;;;7.98;100.00
70781;BME280;59514;48.810;2.134;2022-11-20T13:03:36;99765.97;;;7.99;100.00
70781;BME280;59514;48.810;2.134;2022-11-20T13:06:17;99753.34;;;8.06;100.00
70781;BME280;59514;48.810;2.134;2022-11-20T13:08:49;99744.88;;;8.09;100.00
70781;BME280;59514;48.810;2.134;2022-11-20T13:11:18;99743.69;;;8.23;100.00
70781;BME280;59514;48.810;2.134;2022-11-20T13:19:31;99758.09;;;8.40;100.00
70781;BME280;59514;48.810;2.134;2022-11-20T13:21:57;99762.53;;;8.46;100.00
70781;BME280;59514;48.810;2.134;2022-11-20T13:24:27;99782.41;;;8.38;100.00
70781;BME280;59514;48.810;2.134;2022-11-20T13:29:35;99764.06;;;8.53;100.00
70781;BME280;59514;48.810;2.134;2022-11-20T13:32:15;99763.16;;;8.59;100.00
70781;BME280;59514;48.810;2.134;2022-11-20T13:34:55;99757.59;;;8.61;100.00
70781;BME280;59514;48.810;2.134;2022-11-20T13:37:39;99759.34;;;8.67;100.00
70781;BME280;59514;48.810;2.134;2022-11-20T13:40:22;99773.31;;;8.69;100.00
70781;BME280;59514;48.810;2.134;2022-11-20T13:45:27;99763.16;;;8.89;100.00
70781;BME280;59514;48.810;2.134;2022-11-20T13:47:54;99757.47;;;8.97;100.00
70781;BME280;59514;48.810;2.134;2022-11-20T13:50:24;99754.94;;;9.02;100.00
70781;BME280;59514;48.810;2.134;2022-11-20T13:53:04;99750.03;;;9.11;100.00
70781;BME280;59514;48.810;2.134;2022-11-20T13:55:59;99757.41;;;9.27;100.00
70781;BME280;59514;48.810;2.134;2022-11-20T14:01:10;99757.53;;;9.32;100.00
70781;BME280;59514;48.810;2.134;2022-11-20T14:03:40;99755.09;;;9.30;100.00
70781;BME280;59514;48.810;2.134;2022-11-20T14:06:13;99750.31;;;9.55;100.00
70781;BME280;59514;48.810;2.134;2022-11-20T14:08:48;99742.97;;;9.86;99.15
70781;BME280;59514;48.810;2.134;2022-11-20T14:11:20;99743.06;;;9.91;98.06
70781;BME280;59514;48.810;2.134;2022-11-20T14:13:55;99743.19;;;9.96;98.15
70781;BME280;59514;48.810;2.134;2022-11-20T14:16:21;99735.94;;;10.08;96.74
70781;BME280;59514;48.810;2.134;2022-11-20T14:18:47;99730.91;;;10.23;96.49
70781;BME280;59514;48.810;2.134;2022-11-20T14:21:22;99725.53;;;10.23;95.72
70781;BME280;59514;48.810;2.134;2022-11-20T14:23:47;99731.59;;;10.18;95.18
70781;BME280;59514;48.810;2.134;2022-11-20T14:26:17;99735.81;;;10.26;95.05
70781;BME280;59514;48.810;2.134;2022-11-20T14:28:48;99737.22;;;10.17;95.54
70781;BME280;59514;48.810;2.134;2022-11-20T14:31:21;99729.97;;;10.17;96.32
70781;BME280;59514;48.810;2.134;2022-11-20T14:33:47;99738.03;;;10.17;95.68
70781;BME280;59514;48.810;2.134;2022-11-20T14:36:17;99745.09;;;10.35;94.34
70781;BME280;59514;48.810;2.134;2022-11-20T14:38:45;99749.59;;;10.46;94.28
70781;BME280;59514;48.810;2.134;2022-11-20T14:41:23;99733.78;;;10.61;93.26